createdAt,value
2023-04-18T00:00:30.738Z,31.90
2023-04-18T00:03:03.229Z,29.05
2023-04-18T00:05:34.202Z,30.55
2023-04-18T00:08:06.969Z,31.52
2023-04-18T00:10:37.074Z,26.33
2023-04-18T00:13:07.636Z,29.80
2023-04-18T00:15:37.982Z,32.28
2023-04-18T00:18:08.748Z,31.67
2023-04-18T00:20:39.351Z,33.85
2023-04-18T00:23:14.247Z,30.65
2023-04-18T00:25:44.489Z,31.60
2023-04-18T00:28:14.440Z,35.95
2023-04-18T00:30:44.510Z,32.08
2023-04-18T00:33:14.696Z,29.25
2023-04-18T00:35:44.692Z,32.95
2023-04-18T00:38:17.310Z,28.67
2023-04-18T00:40:47.354Z,34.85
2023-04-18T00:43:17.663Z,32.90
2023-04-18T00:45:47.755Z,34.60
2023-04-18T00:48:18.020Z,33.20
2023-04-18T00:50:48.854Z,32.05
2023-04-18T00:53:21.857Z,32.67
2023-04-18T00:55:52.705Z,31.17
2023-04-18T00:58:23.452Z,32.97
2023-04-18T01:00:54.147Z,31.88
2023-04-18T01:03:25.891Z,31.13
2023-04-18T01:05:57.701Z,31.23
2023-04-18T01:08:30.630Z,30.02
2023-04-18T01:11:00.658Z,33.22
2023-04-18T01:13:30.647Z,35.20
2023-04-18T01:16:00.776Z,30.30
2023-04-18T01:18:31.656Z,30.42
2023-04-18T01:21:02.661Z,28.08
2023-04-18T01:23:35.576Z,31.60
2023-04-18T01:26:08.481Z,31.70
2023-04-18T01:28:40.093Z,31.55
2023-04-18T01:31:10.273Z,33.25
2023-04-18T01:33:40.565Z,32.28
2023-04-18T01:36:10.960Z,29.63
2023-04-18T01:38:41.062Z,30.90
2023-04-18T01:41:13.806Z,36.25
2023-04-18T01:43:43.824Z,31.98
2023-04-18T01:46:14.105Z,33.95
2023-04-18T01:48:44.130Z,35.00
2023-04-18T01:51:14.227Z,34.45
2023-04-18T01:53:44.568Z,29.55
2023-04-18T01:56:17.200Z,31.60
2023-04-18T01:58:47.277Z,32.72
2023-04-18T02:01:17.325Z,31.80
2023-04-18T02:03:47.496Z,33.67
2023-04-18T02:06:17.753Z,34.30
2023-04-18T02:08:47.751Z,34.35
2023-04-18T02:11:20.536Z,29.70
2023-04-18T02:13:50.786Z,30.00
2023-04-18T02:16:21.075Z,28.95
2023-04-18T02:18:52.623Z,30.52
2023-04-18T02:21:22.882Z,34.85
2023-04-18T02:23:53.021Z,32.78
2023-04-18T02:26:25.917Z,26.88
2023-04-18T02:28:56.044Z,33.47
2023-04-18T02:31:26.187Z,30.45
2023-04-18T02:33:56.275Z,31.00
2023-04-18T02:36:28.281Z,31.17
2023-04-18T02:38:58.412Z,28.77
2023-04-18T02:41:31.378Z,29.95
2023-04-18T02:44:02.046Z,30.35
2023-04-18T02:46:32.248Z,31.75
2023-04-18T02:49:02.382Z,34.75
2023-04-18T02:51:32.350Z,30.40
2023-04-18T02:54:02.349Z,33.75
2023-04-18T02:56:40.081Z,33.05
2023-04-18T02:59:10.783Z,28.30
2023-04-18T03:01:41.100Z,32.78
2023-04-18T03:04:11.480Z,29.05
2023-04-18T03:06:41.804Z,28.88
2023-04-18T03:09:11.948Z,31.65
2023-04-18T03:11:44.467Z,29.45
2023-04-18T03:14:14.622Z,30.55
2023-04-18T03:16:45.141Z,29.45
2023-04-18T03:19:15.366Z,30.48
2023-04-18T03:21:45.496Z,34.47
2023-04-18T03:24:15.684Z,28.58
2023-04-18T03:26:48.890Z,31.50
2023-04-18T03:29:23.463Z,29.60
2023-04-18T03:31:53.514Z,33.05
2023-04-18T03:34:23.644Z,35.92
2023-04-18T03:36:53.887Z,32.08
2023-04-18T03:39:23.997Z,32.28
2023-04-18T03:41:56.641Z,32.78
2023-04-18T03:44:26.713Z,31.67
2023-04-18T03:46:57.549Z,29.73
2023-04-18T03:49:27.730Z,31.08
2023-04-18T03:51:57.904Z,30.83
2023-04-18T03:54:28.178Z,30.65
2023-04-18T03:57:01.084Z,28.00
2023-04-18T03:59:31.093Z,29.40
2023-04-18T04:02:01.336Z,30.35
2023-04-18T04:04:31.656Z,29.63
2023-04-18T04:07:02.123Z,30.98
2023-04-18T04:09:32.333Z,34.42
2023-04-18T04:12:05.147Z,29.98
2023-04-18T04:14:35.414Z,30.27
2023-04-18T04:17:05.718Z,35.05
2023-04-18T04:19:35.869Z,33.67
2023-04-18T04:22:05.970Z,33.00
2023-04-18T04:24:38.505Z,29.60
2023-04-18T04:27:12.734Z,32.83
2023-04-18T04:29:43.889Z,30.45
2023-04-18T04:32:13.951Z,31.15
2023-04-18T04:34:44.104Z,34.55
2023-04-18T04:37:14.225Z,32.47
2023-04-18T04:39:44.302Z,34.30
2023-04-18T04:42:17.005Z,36.17
2023-04-18T04:44:47.466Z,34.80
2023-04-18T04:47:17.545Z,33.92
2023-04-18T04:49:47.743Z,38.13
2023-04-18T04:52:17.877Z,33.72
2023-04-18T04:54:48.353Z,32.92
2023-04-18T04:57:21.112Z,37.13
2023-04-18T04:59:51.186Z,34.80
2023-04-18T05:02:23.535Z,33.58
2023-04-18T05:04:53.905Z,34.67
2023-04-18T05:07:24.030Z,34.92
2023-04-18T05:09:55.051Z,36.70
2023-04-18T05:12:27.684Z,36.83
2023-04-18T05:14:57.679Z,37.22
2023-04-18T05:17:27.783Z,36.40
2023-04-18T05:19:57.805Z,35.75
2023-04-18T05:22:27.885Z,38.67
2023-04-18T05:24:57.964Z,35.58
2023-04-18T05:27:31.051Z,37.40
2023-04-18T05:30:01.219Z,36.97
2023-04-18T05:32:31.343Z,39.90
2023-04-18T05:35:01.485Z,42.13
2023-04-18T05:37:31.542Z,38.25
2023-04-18T05:40:01.593Z,37.97
2023-04-18T05:42:34.371Z,42.08
2023-04-18T05:45:04.529Z,38.15
2023-04-18T05:47:34.613Z,35.33
2023-04-18T05:50:04.730Z,38.92
2023-04-18T05:52:35.996Z,40.95
2023-04-18T05:55:06.308Z,37.70
2023-04-18T05:57:40.740Z,36.25
2023-04-18T06:00:14.001Z,39.45
2023-04-18T06:02:44.083Z,42.20
2023-04-18T06:05:15.152Z,46.13
2023-04-18T06:07:45.435Z,43.90
2023-04-18T06:10:16.040Z,40.03
2023-04-18T06:12:48.771Z,40.78
2023-04-18T06:15:18.961Z,42.38
2023-04-18T06:17:49.071Z,35.08
2023-04-18T06:20:19.156Z,37.80
2023-04-18T06:22:49.244Z,38.67
2023-04-18T06:25:19.585Z,37.97
2023-04-18T06:27:52.448Z,38.75
2023-04-18T06:30:22.709Z,35.70
2023-04-18T06:32:52.854Z,44.85
2023-04-18T06:35:24.600Z,36.10
2023-04-18T06:37:56.650Z,42.97
2023-04-18T06:40:27.018Z,39.42
2023-04-18T06:42:59.708Z,35.85
2023-04-18T06:45:29.843Z,37.78
2023-04-18T06:48:00.212Z,36.63
2023-04-18T06:50:30.448Z,36.25
2023-04-18T06:53:00.635Z,37.58
2023-04-18T06:55:30.896Z,38.55
2023-04-18T06:58:03.670Z,33.03
2023-04-18T07:00:33.823Z,35.97
2023-04-18T07:03:11.337Z,34.85
2023-04-18T07:05:42.194Z,35.55
2023-04-18T07:08:12.334Z,33.33
2023-04-18T07:10:42.480Z,38.50
2023-04-18T07:13:17.934Z,38.45
2023-04-18T07:15:48.161Z,34.20
2023-04-18T07:18:30.210Z,31.80
2023-04-18T07:21:07.970Z,34.63
2023-04-18T07:23:38.525Z,34.28
2023-04-18T07:26:10.189Z,36.70
2023-04-18T07:28:42.881Z,32.15
2023-04-18T07:31:14.654Z,35.35
2023-04-18T07:33:44.892Z,32.92
2023-04-18T07:36:15.269Z,33.85
2023-04-18T07:38:45.419Z,32.35
2023-04-18T07:41:15.566Z,38.28
2023-04-18T07:43:48.214Z,31.13
2023-04-18T07:46:18.355Z,35.83
2023-04-18T07:48:48.772Z,35.55
2023-04-18T07:51:18.874Z,32.45
2023-04-18T07:53:48.969Z,31.65
2023-04-18T07:56:19.092Z,28.98
2023-04-18T07:58:51.754Z,31.98
2023-04-18T08:01:24.435Z,32.38
2023-04-18T08:03:56.526Z,29.50
2023-04-18T08:06:27.237Z,31.30
2023-04-18T08:08:59.169Z,29.02
2023-04-18T08:11:30.035Z,28.90
2023-04-18T08:14:03.376Z,37.75
2023-04-18T08:16:33.501Z,34.55
2023-04-18T08:19:03.543Z,33.90
2023-04-18T08:21:35.270Z,32.13
2023-04-18T08:24:05.320Z,30.42
2023-04-18T08:26:35.404Z,34.55
2023-04-18T08:29:08.713Z,32.53
2023-04-18T08:31:38.932Z,32.90
2023-04-18T08:34:09.036Z,29.90
2023-04-18T08:36:39.201Z,28.45
2023-04-18T08:39:09.185Z,34.13
2023-04-18T08:41:40.757Z,33.97
2023-04-18T08:44:13.716Z,27.92
2023-04-18T08:46:44.286Z,31.83
2023-04-18T08:49:14.870Z,28.77
2023-04-18T08:51:47.354Z,32.72
2023-04-18T08:54:18.489Z,32.25
2023-04-18T08:56:48.653Z,29.23
2023-04-18T08:59:21.376Z,34.45
2023-04-18T09:02:01.752Z,25.60
2023-04-18T09:04:41.158Z,30.95
2023-04-18T09:07:14.057Z,25.08
2023-04-18T09:09:48.995Z,29.85
2023-04-18T09:12:22.706Z,29.83
2023-04-18T09:14:59.853Z,25.92
2023-04-18T09:17:41.899Z,27.73
2023-04-18T09:20:15.935Z,25.15
2023-04-18T09:22:50.839Z,29.45
2023-04-18T09:25:34.643Z,27.38
2023-04-18T09:28:06.441Z,27.80
2023-04-18T09:30:42.346Z,23.60
2023-04-18T09:33:13.030Z,28.85
2023-04-18T09:35:43.267Z,29.67
2023-04-18T09:38:13.601Z,26.33
2023-04-18T09:40:43.772Z,25.33
2023-04-18T09:43:24.166Z,27.73
2023-04-18T09:45:57.245Z,30.35
2023-04-18T09:48:27.481Z,29.65
2023-04-18T09:50:58.377Z,26.65
2023-04-18T09:53:28.861Z,29.40
2023-04-18T09:55:58.950Z,27.77
2023-04-18T09:58:33.492Z,30.55
2023-04-18T10:01:07.634Z,33.03
2023-04-18T10:03:45.234Z,32.70
2023-04-18T10:06:19.353Z,26.30
2023-04-18T10:08:52.004Z,26.70
2023-04-18T10:11:22.324Z,28.73
2023-04-18T10:13:57.135Z,26.05
2023-04-18T10:16:32.516Z,26.52
2023-04-18T10:19:26.156Z,23.88
2023-04-18T10:21:57.625Z,26.80
2023-04-18T10:24:53.636Z,27.63
2023-04-18T10:28:01.836Z,24.00
2023-04-18T10:31:03.870Z,26.70
2023-04-18T10:33:42.785Z,23.75
2023-04-18T10:36:20.963Z,23.00
2023-04-18T10:38:53.178Z,26.30
2023-04-18T10:41:28.639Z,33.85
2023-04-18T10:44:26.363Z,25.20
2023-04-18T10:47:26.991Z,27.50
2023-04-18T10:50:05.955Z,27.77
2023-04-18T10:52:37.218Z,26.98
2023-04-18T10:55:29.932Z,28.98
2023-04-18T10:58:00.878Z,24.05
2023-04-18T11:00:34.954Z,27.10
2023-04-18T11:03:05.166Z,24.92
2023-04-18T11:05:35.434Z,28.42
2023-04-18T11:08:06.492Z,32.13
2023-04-18T11:10:36.563Z,30.63
2023-04-18T11:13:08.858Z,31.55
2023-04-18T11:15:41.791Z,32.15
2023-04-18T11:18:12.686Z,30.13
2023-04-18T11:20:49.856Z,30.65
2023-04-18T11:23:25.052Z,26.25
2023-04-18T11:25:58.426Z,25.15
2023-04-18T11:28:28.810Z,27.75
2023-04-18T11:31:04.800Z,30.42
2023-04-18T11:33:34.910Z,30.40
2023-04-18T11:36:05.812Z,23.63
2023-04-18T11:38:36.000Z,27.63
2023-04-18T11:41:06.273Z,24.42
2023-04-18T11:43:36.287Z,30.55
2023-04-18T11:46:09.122Z,27.77
2023-04-18T11:48:39.360Z,34.65
2023-04-18T11:51:10.246Z,34.15
2023-04-18T11:53:41.737Z,28.35
2023-04-18T11:56:16.280Z,36.22
2023-04-18T11:58:46.362Z,34.30
2023-04-18T12:01:24.260Z,24.13
2023-04-18T12:04:05.315Z,27.10
2023-04-18T12:06:51.060Z,23.20
2023-04-18T12:09:22.099Z,16.10
2023-04-18T12:12:03.055Z,24.17
2023-04-18T12:14:33.690Z,21.05
2023-04-18T12:17:06.795Z,24.88
2023-04-18T12:19:37.440Z,21.70
2023-04-18T12:22:09.550Z,22.27
2023-04-18T12:24:39.787Z,22.55
2023-04-18T12:27:09.906Z,10.68
2023-04-18T12:29:40.102Z,20.95
2023-04-18T12:32:12.720Z,19.58
2023-04-18T12:34:42.833Z,23.00
2023-04-18T12:37:12.908Z,21.08
2023-04-18T12:39:42.969Z,22.52
2023-04-18T12:42:13.092Z,22.30
2023-04-18T12:44:43.263Z,16.10
2023-04-18T12:47:15.984Z,17.50
2023-04-18T12:49:46.074Z,23.27
2023-04-18T12:52:16.347Z,20.88
2023-04-18T12:54:46.584Z,19.52
2023-04-18T12:57:16.706Z,17.52
2023-04-18T12:59:46.818Z,8.57
2023-04-18T13:02:19.606Z,22.65
2023-04-18T13:04:50.021Z,18.58
2023-04-18T13:07:20.389Z,17.27
2023-04-18T13:09:51.459Z,21.52
2023-04-18T13:12:22.014Z,20.80
2023-04-18T13:14:52.189Z,19.05
2023-04-18T13:17:25.030Z,16.33
2023-04-18T13:19:55.559Z,16.88
2023-04-18T13:22:25.949Z,17.77
2023-04-18T13:24:56.188Z,16.95
2023-04-18T13:27:26.364Z,18.50
2023-04-18T13:29:57.508Z,18.52
2023-04-18T13:32:30.663Z,18.77
2023-04-18T13:35:00.972Z,10.82
2023-04-18T13:37:31.547Z,16.10
2023-04-18T13:40:01.749Z,18.95
2023-04-18T13:42:31.856Z,17.30
2023-04-18T13:45:02.112Z,18.52
2023-04-18T13:47:35.336Z,16.27
2023-04-18T13:50:05.882Z,17.55
2023-04-18T13:52:36.573Z,13.95
2023-04-18T13:55:07.330Z,17.23
2023-04-18T13:57:37.887Z,16.23
2023-04-18T14:00:11.390Z,16.45
2023-04-18T14:02:44.221Z,16.10
2023-04-18T14:05:14.453Z,15.23
2023-04-18T14:07:44.609Z,15.02
2023-04-18T14:10:15.149Z,14.52
2023-04-18T14:12:45.209Z,17.83
2023-04-18T14:15:15.554Z,17.95
2023-04-18T14:17:48.228Z,18.10
2023-04-18T14:20:19.432Z,17.20
2023-04-18T14:22:52.325Z,16.42
2023-04-18T14:25:23.324Z,17.05
2023-04-18T14:28:09.807Z,19.20
2023-04-18T14:30:41.286Z,17.13
2023-04-18T14:33:14.006Z,19.10
2023-04-18T14:35:44.336Z,16.35
2023-04-18T14:38:14.461Z,10.27
2023-04-18T14:40:44.755Z,8.30
2023-04-18T14:43:15.294Z,20.98
2023-04-18T14:45:45.352Z,18.30
2023-04-18T14:48:18.125Z,20.20
2023-04-18T14:50:48.209Z,16.27
2023-04-18T14:53:18.329Z,20.35
2023-04-18T14:55:48.425Z,16.83
2023-04-18T14:58:18.759Z,11.93
2023-04-18T15:00:49.415Z,18.73
2023-04-18T15:03:22.502Z,16.98
2023-04-18T15:05:53.379Z,21.50
2023-04-18T15:08:23.568Z,17.95
2023-04-18T15:10:53.836Z,15.57
2023-04-18T15:13:24.044Z,14.45
2023-04-18T15:15:58.260Z,17.17
2023-04-18T15:18:31.067Z,20.65
2023-04-18T15:21:02.998Z,19.88
2023-04-18T15:23:33.258Z,12.88
2023-04-18T15:26:03.252Z,13.55
2023-04-18T15:28:34.456Z,17.30
2023-04-18T15:31:04.599Z,13.93
2023-04-18T15:33:37.416Z,13.48
2023-04-18T15:36:09.128Z,14.50
2023-04-18T15:38:40.218Z,13.82
2023-04-18T15:41:10.368Z,7.35
2023-04-18T15:43:42.244Z,5.53
2023-04-18T15:46:13.101Z,8.52
2023-04-18T15:48:45.867Z,13.15
2023-04-18T15:51:16.144Z,11.95
2023-04-18T15:53:46.637Z,8.07
2023-04-18T15:56:17.118Z,8.55
2023-04-18T15:58:47.410Z,13.13
2023-04-18T16:01:19.032Z,8.02
2023-04-18T16:03:51.993Z,9.77
2023-04-18T16:06:23.703Z,5.35
2023-04-18T16:08:53.795Z,8.93
2023-04-18T16:11:26.328Z,4.05
2023-04-18T16:13:57.807Z,9.38
2023-04-18T16:16:28.609Z,8.43
2023-04-18T16:19:01.271Z,7.88
2023-04-18T16:21:32.666Z,10.93
2023-04-18T16:24:03.074Z,10.77
2023-04-18T16:26:33.173Z,9.02
2023-04-18T16:29:03.370Z,9.15
2023-04-18T16:31:33.412Z,12.07
2023-04-18T16:34:06.331Z,10.20
2023-04-18T16:36:37.285Z,8.20
2023-04-18T16:39:07.576Z,8.77
2023-04-18T16:41:37.731Z,13.68
2023-04-18T16:44:08.190Z,11.50
2023-04-18T16:46:38.431Z,12.85
2023-04-18T16:49:11.665Z,11.38
2023-04-18T16:51:41.891Z,13.93
2023-04-18T16:54:12.311Z,10.82
2023-04-18T16:56:44.826Z,11.10
2023-04-18T16:59:15.112Z,10.40
2023-04-18T17:01:45.282Z,9.25
2023-04-18T17:04:18.341Z,15.50
2023-04-18T17:06:49.763Z,9.95
2023-04-18T17:09:21.710Z,10.27
2023-04-18T17:11:51.943Z,11.00
2023-04-18T17:14:22.159Z,11.73
2023-04-18T17:16:53.769Z,11.82
2023-04-18T17:19:26.677Z,11.75
2023-04-18T17:21:56.937Z,8.60
2023-04-18T17:24:27.300Z,12.57
2023-04-18T17:26:58.115Z,10.00
2023-04-18T17:29:28.237Z,12.60
2023-04-18T17:31:58.401Z,11.50
2023-04-18T17:34:31.136Z,11.70
2023-04-18T17:37:01.253Z,12.57
2023-04-18T17:39:31.485Z,10.30
2023-04-18T17:42:02.333Z,8.40
2023-04-18T17:44:32.618Z,11.52
2023-04-18T17:47:02.844Z,11.38
2023-04-18T17:49:36.521Z,10.38
2023-04-18T17:52:07.413Z,15.07
2023-04-18T17:54:37.553Z,13.40
2023-04-18T17:57:07.766Z,12.45
2023-04-18T17:59:37.986Z,10.57
2023-04-18T18:02:08.300Z,10.85
2023-04-18T18:04:41.943Z,12.73
2023-04-18T18:07:12.200Z,10.97
2023-04-18T18:09:42.247Z,12.38
2023-04-18T18:12:12.648Z,12.73
2023-04-18T18:14:43.342Z,13.20
2023-04-18T18:17:14.115Z,9.43
2023-04-18T18:19:46.702Z,15.23
2023-04-18T18:22:17.692Z,12.68
2023-04-18T18:24:50.635Z,10.60
2023-04-18T18:27:20.922Z,13.77
2023-04-18T18:29:51.065Z,12.55
2023-04-18T18:32:22.040Z,13.32
2023-04-18T18:34:54.748Z,14.43
2023-04-18T18:37:26.214Z,10.63
2023-04-18T18:39:57.336Z,12.50
2023-04-18T18:42:28.694Z,11.23
2023-04-18T18:44:58.694Z,11.15
2023-04-18T18:47:30.674Z,12.52
2023-04-18T18:50:04.043Z,10.35
2023-04-18T18:52:34.317Z,14.45
2023-04-18T18:55:04.781Z,11.80
2023-04-18T18:57:34.783Z,14.45
2023-04-18T19:00:04.891Z,10.95
2023-04-18T19:02:36.417Z,16.27
2023-04-18T19:05:12.716Z,10.50
2023-04-18T19:07:43.852Z,10.90
2023-04-18T19:10:14.297Z,12.25
2023-04-18T19:12:44.302Z,12.75
2023-04-18T19:15:15.298Z,14.07
2023-04-18T19:17:45.583Z,13.02
2023-04-18T19:20:18.344Z,13.10
2023-04-18T19:22:48.413Z,12.75
2023-04-18T19:25:18.545Z,12.95
2023-04-18T19:27:48.612Z,16.13
2023-04-18T19:30:18.672Z,12.70
2023-04-18T19:32:48.797Z,13.23
2023-04-18T19:35:21.527Z,14.07
2023-04-18T19:37:51.612Z,15.65
2023-04-18T19:40:23.796Z,14.40
2023-04-18T19:42:53.935Z,14.98
2023-04-18T19:45:24.035Z,14.95
2023-04-18T19:47:54.308Z,13.25
2023-04-18T19:50:27.122Z,15.63
2023-04-18T19:52:57.234Z,12.25
2023-04-18T19:55:27.810Z,12.43
2023-04-18T19:58:02.113Z,14.68
2023-04-18T20:00:34.209Z,14.13
2023-04-18T20:03:04.681Z,14.93
2023-04-18T20:05:37.551Z,14.85
2023-04-18T20:08:08.352Z,14.10
2023-04-18T20:10:38.580Z,14.00
2023-04-18T20:13:08.591Z,18.08
2023-04-18T20:15:39.003Z,16.77
2023-04-18T20:18:09.232Z,15.77
2023-04-18T20:20:41.818Z,16.92
2023-04-18T20:23:11.888Z,19.73
2023-04-18T20:25:41.888Z,15.63
2023-04-18T20:28:11.862Z,17.30
2023-04-18T20:30:41.920Z,14.48
2023-04-18T20:33:12.000Z,16.15
2023-04-18T20:35:44.677Z,16.25
2023-04-18T20:38:15.109Z,16.02
2023-04-18T20:40:45.519Z,13.40
2023-04-18T20:43:17.564Z,17.02
2023-04-18T20:45:51.094Z,17.05
2023-04-18T20:48:21.631Z,17.25
2023-04-18T20:50:54.435Z,15.15
2023-04-18T20:53:26.221Z,13.57
2023-04-18T20:55:56.250Z,15.40
2023-04-18T20:58:26.342Z,17.48
2023-04-18T21:00:56.617Z,15.73
2023-04-18T21:03:29.310Z,16.55
2023-04-18T21:06:02.323Z,15.60
2023-04-18T21:08:34.803Z,17.73
2023-04-18T21:11:05.020Z,19.45
2023-04-18T21:13:35.899Z,15.13
2023-04-18T21:16:07.965Z,17.50
2023-04-18T21:18:38.178Z,18.92
2023-04-18T21:21:11.842Z,17.20
2023-04-18T21:23:45.778Z,20.58
2023-04-18T21:26:16.200Z,22.00
2023-04-18T21:28:58.160Z,19.27
2023-04-18T21:31:29.219Z,20.05
2023-04-18T21:34:00.702Z,19.10
2023-04-18T21:36:34.357Z,15.27
2023-04-18T21:39:04.869Z,18.75
2023-04-18T21:41:35.100Z,18.65
2023-04-18T21:44:05.207Z,18.63
2023-04-18T21:46:35.212Z,16.55
2023-04-18T21:49:05.564Z,15.88
2023-04-18T21:51:38.334Z,17.63
2023-04-18T21:54:10.172Z,17.55
2023-04-18T21:56:40.242Z,19.08
2023-04-18T21:59:10.841Z,20.23
2023-04-18T22:01:40.994Z,21.80
2023-04-18T22:04:12.551Z,23.35
2023-04-18T22:06:45.275Z,18.35
2023-04-18T22:09:19.315Z,20.27
2023-04-18T22:11:51.331Z,20.55
2023-04-18T22:14:22.446Z,19.42
2023-04-18T22:16:54.234Z,21.40
2023-04-18T22:19:24.931Z,17.73
2023-04-18T22:21:57.670Z,17.77
2023-04-18T22:24:28.460Z,16.40
2023-04-18T22:26:58.983Z,14.05
2023-04-18T22:29:28.997Z,18.42
2023-04-18T22:31:59.054Z,18.90
2023-04-18T22:34:29.109Z,15.20
2023-04-18T22:37:01.728Z,17.42
2023-04-18T22:39:31.771Z,14.20
2023-04-18T22:42:01.701Z,22.10
2023-04-18T22:44:31.697Z,17.23
2023-04-18T22:47:03.196Z,15.55
2023-04-18T22:49:33.235Z,13.45
2023-04-18T22:52:06.433Z,14.13
2023-04-18T22:54:36.622Z,17.67
2023-04-18T22:57:06.972Z,16.50
2023-04-18T22:59:37.305Z,16.38
2023-04-18T23:02:07.507Z,13.05
2023-04-18T23:04:37.635Z,16.25
2023-04-18T23:07:10.427Z,11.70
2023-04-18T23:09:40.517Z,18.08
2023-04-18T23:12:10.667Z,16.05
2023-04-18T23:14:41.929Z,11.68
2023-04-18T23:17:11.905Z,13.38
2023-04-18T23:19:42.103Z,11.43
2023-04-18T23:22:14.765Z,13.30
2023-04-18T23:24:44.787Z,14.48
2023-04-18T23:27:14.914Z,14.07
2023-04-18T23:29:45.624Z,12.23
2023-04-18T23:32:15.738Z,12.52
2023-04-18T23:34:45.861Z,12.70
2023-04-18T23:37:18.539Z,15.35
2023-04-18T23:39:48.592Z,13.32
2023-04-18T23:42:18.594Z,17.42
2023-04-18T23:44:48.585Z,13.70
2023-04-18T23:47:18.643Z,11.52
2023-04-18T23:49:48.657Z,10.38
2023-04-18T23:52:21.541Z,15.45
2023-04-18T23:54:51.905Z,11.82
2023-04-18T23:57:21.961Z,10.18
2023-04-18T23:59:51.997Z,11.77
